Rowlett, Texas
Current Conditions -  °F | °C
As of 6:35 PM on Sunday 21 Dec 2014 (Local Time) from KF46 Reporting Station
Overcast Overcast  
Wind Chill: 50°   Ceiling: 1900
Heat Index: 50°   Visibility: 10mi
Dew Point: 46°   Wind: 8mph
Humidity: 87%   Direction: 160°SSE
Pressure: 29.84"   Gusts: 17mph
Location:  32.9°N, 96.57°W
Report Text: KF46 220035Z AUTO 16007G15KT 10SM OVC019 10/08 A2984 RMK AO2 T01000080
Loading
Personal Weather Stations






























Interactive Weather Map New forecast layout! Learn more

10-Day Weather Forecast

Advertisements
Track Severe Weather on mobile